sensor_id;sensor_type;location;lat;lon;timestamp;P1;durP1;ratioP1;P2;durP2;ratioP2
70547;SDS011;58099;43.406;3.698;2022-07-03T00:01:31;3.80;;;1.47;;
70547;SDS011;58099;43.406;3.698;2022-07-03T00:03:57;3.42;;;1.30;;
70547;SDS011;58099;43.406;3.698;2022-07-03T00:06:23;4.20;;;1.23;;
70547;SDS011;58099;43.406;3.698;2022-07-03T00:08:50;3.60;;;0.80;;
70547;SDS011;58099;43.406;3.698;2022-07-03T00:11:16;3.70;;;1.10;;
70547;SDS011;58099;43.406;3.698;2022-07-03T00:13:42;4.45;;;0.90;;
70547;SDS011;58099;43.406;3.698;2022-07-03T00:16:07;4.80;;;0.90;;
70547;SDS011;58099;43.406;3.698;2022-07-03T00:18:33;4.68;;;0.90;;
70547;SDS011;58099;43.406;3.698;2022-07-03T00:21:02;3.00;;;0.70;;
70547;SDS011;58099;43.406;3.698;2022-07-03T00:23:30;4.00;;;0.77;;
70547;SDS011;58099;43.406;3.698;2022-07-03T00:26:19;5.00;;;1.10;;
70547;SDS011;58099;43.406;3.698;2022-07-03T00:28:45;3.42;;;0.80;;
70547;SDS011;58099;43.406;3.698;2022-07-03T00:31:12;4.10;;;1.30;;
70547;SDS011;58099;43.406;3.698;2022-07-03T00:33:38;3.85;;;1.35;;
70547;SDS011;58099;43.406;3.698;2022-07-03T00:36:05;8.93;;;2.08;;
70547;SDS011;58099;43.406;3.698;2022-07-03T00:38:32;4.63;;;1.50;;
70547;SDS011;58099;43.406;3.698;2022-07-03T00:40:58;4.85;;;1.52;;
70547;SDS011;58099;43.406;3.698;2022-07-03T00:43:27;5.07;;;1.80;;
70547;SDS011;58099;43.406;3.698;2022-07-03T00:45:53;4.93;;;1.57;;
70547;SDS011;58099;43.406;3.698;2022-07-03T00:48:19;4.43;;;1.50;;
70547;SDS011;58099;43.406;3.698;2022-07-03T00:50:46;3.72;;;1.27;;
70547;SDS011;58099;43.406;3.698;2022-07-03T00:53:29;4.03;;;1.10;;
70547;SDS011;58099;43.406;3.698;2022-07-03T00:55:57;5.05;;;1.27;;
70547;SDS011;58099;43.406;3.698;2022-07-03T00:58:25;4.50;;;1.50;;
70547;SDS011;58099;43.406;3.698;2022-07-03T01:00:52;5.40;;;1.40;;
70547;SDS011;58099;43.406;3.698;2022-07-03T01:03:20;4.25;;;1.35;;
70547;SDS011;58099;43.406;3.698;2022-07-03T01:05:51;4.50;;;1.37;;
70547;SDS011;58099;43.406;3.698;2022-07-03T01:08:41;3.53;;;1.17;;
70547;SDS011;58099;43.406;3.698;2022-07-03T01:16:41;4.45;;;1.38;;
70547;SDS011;58099;43.406;3.698;2022-07-03T01:27:34;5.68;;;1.17;;
70547;SDS011;58099;43.406;3.698;2022-07-03T01:30:11;4.10;;;1.48;;
70547;SDS011;58099;43.406;3.698;2022-07-03T01:32:44;3.63;;;1.33;;
70547;SDS011;58099;43.406;3.698;2022-07-03T01:35:12;3.42;;;0.90;;
70547;SDS011;58099;43.406;3.698;2022-07-03T01:37:44;3.88;;;0.82;;
70547;SDS011;58099;43.406;3.698;2022-07-03T01:40:11;4.82;;;0.80;;
70547;SDS011;58099;43.406;3.698;2022-07-03T01:42:37;4.00;;;1.40;;
70547;SDS011;58099;43.406;3.698;2022-07-03T01:45:08;3.93;;;1.20;;
70547;SDS011;58099;43.406;3.698;2022-07-03T01:47:35;3.70;;;1.10;;
70547;SDS011;58099;43.406;3.698;2022-07-03T01:50:05;4.32;;;1.45;;
70547;SDS011;58099;43.406;3.698;2022-07-03T01:52:32;3.97;;;1.23;;
70547;SDS011;58099;43.406;3.698;2022-07-03T01:55:01;4.40;;;1.13;;
70547;SDS011;58099;43.406;3.698;2022-07-03T01:57:32;4.13;;;1.60;;
70547;SDS011;58099;43.406;3.698;2022-07-03T02:00:13;4.38;;;1.05;;
70547;SDS011;58099;43.406;3.698;2022-07-03T02:02:45;4.85;;;1.20;;
70547;SDS011;58099;43.406;3.698;2022-07-03T02:11:21;4.43;;;1.43;;
70547;SDS011;58099;43.406;3.698;2022-07-03T02:16:12;4.10;;;1.30;;
70547;SDS011;58099;43.406;3.698;2022-07-03T02:18:43;4.90;;;1.15;;
70547;SDS011;58099;43.406;3.698;2022-07-03T02:21:20;5.15;;;1.48;;
70547;SDS011;58099;43.406;3.698;2022-07-03T02:23:53;4.57;;;1.33;;
70547;SDS011;58099;43.406;3.698;2022-07-03T02:26:21;4.53;;;1.33;;
70547;SDS011;58099;43.406;3.698;2022-07-03T02:31:26;4.65;;;1.40;;
70547;SDS011;58099;43.406;3.698;2022-07-03T02:33:56;4.30;;;1.85;;
70547;SDS011;58099;43.406;3.698;2022-07-03T02:36:23;3.77;;;1.53;;
70547;SDS011;58099;43.406;3.698;2022-07-03T02:38:54;4.47;;;1.65;;
70547;SDS011;58099;43.406;3.698;2022-07-03T02:41:23;5.10;;;1.67;;
70547;SDS011;58099;43.406;3.698;2022-07-03T02:47:14;6.45;;;1.77;;
70547;SDS011;58099;43.406;3.698;2022-07-03T02:50:04;5.40;;;2.07;;
70547;SDS011;58099;43.406;3.698;2022-07-03T03:00:41;5.30;;;1.63;;
70547;SDS011;58099;43.406;3.698;2022-07-03T03:03:16;4.53;;;1.67;;
70547;SDS011;58099;43.406;3.698;2022-07-03T03:05:51;4.85;;;1.83;;
70547;SDS011;58099;43.406;3.698;2022-07-03T03:08:46;5.70;;;2.42;;
70547;SDS011;58099;43.406;3.698;2022-07-03T03:11:24;5.55;;;1.75;;
70547;SDS011;58099;43.406;3.698;2022-07-03T03:13:59;5.28;;;2.10;;
70547;SDS011;58099;43.406;3.698;2022-07-03T03:16:28;4.97;;;1.90;;
70547;SDS011;58099;43.406;3.698;2022-07-03T03:18:54;4.97;;;1.85;;
70547;SDS011;58099;43.406;3.698;2022-07-03T03:21:20;4.60;;;1.88;;
70547;SDS011;58099;43.406;3.698;2022-07-03T03:23:52;5.77;;;1.60;;
70547;SDS011;58099;43.406;3.698;2022-07-03T03:26:22;5.13;;;1.58;;
70547;SDS011;58099;43.406;3.698;2022-07-03T03:28:50;5.75;;;2.00;;
70547;SDS011;58099;43.406;3.698;2022-07-03T03:31:17;5.07;;;1.70;;
70547;SDS011;58099;43.406;3.698;2022-07-03T03:33:45;4.10;;;1.58;;
70547;SDS011;58099;43.406;3.698;2022-07-03T03:36:13;4.30;;;1.80;;
70547;SDS011;58099;43.406;3.698;2022-07-03T03:38:42;3.80;;;1.70;;
70547;SDS011;58099;43.406;3.698;2022-07-03T03:41:08;3.70;;;1.83;;
70547;SDS011;58099;43.406;3.698;2022-07-03T03:43:34;4.80;;;1.70;;
70547;SDS011;58099;43.406;3.698;2022-07-03T03:46:01;5.65;;;2.40;;
70547;SDS011;58099;43.406;3.698;2022-07-03T03:48:27;5.45;;;2.20;;
70547;SDS011;58099;43.406;3.698;2022-07-03T03:50:57;6.75;;;2.50;;
70547;SDS011;58099;43.406;3.698;2022-07-03T03:53:26;5.20;;;2.23;;
70547;SDS011;58099;43.406;3.698;2022-07-03T03:58:33;5.00;;;2.40;;
70547;SDS011;58099;43.406;3.698;2022-07-03T04:01:00;5.70;;;2.22;;
70547;SDS011;58099;43.406;3.698;2022-07-03T04:03:27;5.57;;;2.40;;
70547;SDS011;58099;43.406;3.698;2022-07-03T04:05:54;7.93;;;2.50;;
70547;SDS011;58099;43.406;3.698;2022-07-03T04:08:20;4.38;;;2.35;;
70547;SDS011;58099;43.406;3.698;2022-07-03T04:10:47;5.47;;;2.63;;
70547;SDS011;58099;43.406;3.698;2022-07-03T04:13:14;4.78;;;1.95;;
70547;SDS011;58099;43.406;3.698;2022-07-03T04:15:41;4.75;;;2.00;;
70547;SDS011;58099;43.406;3.698;2022-07-03T04:18:07;5.50;;;2.30;;
70547;SDS011;58099;43.406;3.698;2022-07-03T04:20:33;6.05;;;1.83;;
70547;SDS011;58099;43.406;3.698;2022-07-03T04:23:00;4.68;;;2.08;;
70547;SDS011;58099;43.406;3.698;2022-07-03T04:25:26;4.20;;;1.70;;
70547;SDS011;58099;43.406;3.698;2022-07-03T04:27:52;5.45;;;2.25;;
70547;SDS011;58099;43.406;3.698;2022-07-03T04:30:18;6.50;;;2.20;;
70547;SDS011;58099;43.406;3.698;2022-07-03T04:32:44;3.72;;;1.70;;
70547;SDS011;58099;43.406;3.698;2022-07-03T04:35:10;4.75;;;1.65;;
70547;SDS011;58099;43.406;3.698;2022-07-03T04:37:36;4.80;;;1.60;;
70547;SDS011;58099;43.406;3.698;2022-07-03T04:40:02;4.47;;;1.98;;
70547;SDS011;58099;43.406;3.698;2022-07-03T04:42:28;4.35;;;1.50;;
70547;SDS011;58099;43.406;3.698;2022-07-03T04:44:54;5.47;;;1.80;;
70547;SDS011;58099;43.406;3.698;2022-07-03T04:47:19;5.45;;;2.00;;
70547;SDS011;58099;43.406;3.698;2022-07-03T04:49:45;4.93;;;2.00;;
70547;SDS011;58099;43.406;3.698;2022-07-03T04:52:11;4.20;;;1.80;;
70547;SDS011;58099;43.406;3.698;2022-07-03T04:54:37;5.20;;;2.20;;
70547;SDS011;58099;43.406;3.698;2022-07-03T04:57:03;5.97;;;2.30;;
70547;SDS011;58099;43.406;3.698;2022-07-03T04:59:29;5.43;;;2.55;;
70547;SDS011;58099;43.406;3.698;2022-07-03T05:01:55;4.07;;;1.63;;
70547;SDS011;58099;43.406;3.698;2022-07-03T05:04:20;4.83;;;2.20;;
70547;SDS011;58099;43.406;3.698;2022-07-03T05:06:46;3.72;;;1.73;;
70547;SDS011;58099;43.406;3.698;2022-07-03T05:09:12;5.10;;;1.60;;
70547;SDS011;58099;43.406;3.698;2022-07-03T05:11:38;5.40;;;1.85;;
70547;SDS011;58099;43.406;3.698;2022-07-03T05:14:05;5.55;;;2.47;;
70547;SDS011;58099;43.406;3.698;2022-07-03T05:16:30;4.55;;;1.92;;
70547;SDS011;58099;43.406;3.698;2022-07-03T05:18:57;5.23;;;1.57;;
70547;SDS011;58099;43.406;3.698;2022-07-03T05:21:22;6.55;;;1.95;;
70547;SDS011;58099;43.406;3.698;2022-07-03T05:23:48;3.97;;;1.70;;
70547;SDS011;58099;43.406;3.698;2022-07-03T05:26:14;4.97;;;2.17;;
70547;SDS011;58099;43.406;3.698;2022-07-03T05:28:40;4.82;;;1.85;;
70547;SDS011;58099;43.406;3.698;2022-07-03T05:31:06;3.85;;;1.80;;
70547;SDS011;58099;43.406;3.698;2022-07-03T05:33:32;4.10;;;2.03;;
70547;SDS011;58099;43.406;3.698;2022-07-03T05:35:58;4.55;;;1.90;;
70547;SDS011;58099;43.406;3.698;2022-07-03T05:38:24;5.35;;;2.00;;
70547;SDS011;58099;43.406;3.698;2022-07-03T05:41:09;4.20;;;1.87;;
70547;SDS011;58099;43.406;3.698;2022-07-03T05:43:35;5.00;;;2.30;;
70547;SDS011;58099;43.406;3.698;2022-07-03T05:46:01;5.00;;;2.17;;
70547;SDS011;58099;43.406;3.698;2022-07-03T05:48:28;5.83;;;2.10;;
70547;SDS011;58099;43.406;3.698;2022-07-03T05:50:54;5.20;;;2.10;;
70547;SDS011;58099;43.406;3.698;2022-07-03T05:53:20;5.03;;;2.38;;
70547;SDS011;58099;43.406;3.698;2022-07-03T05:55:46;5.18;;;1.90;;
70547;SDS011;58099;43.406;3.698;2022-07-03T05:58:12;6.07;;;2.50;;
70547;SDS011;58099;43.406;3.698;2022-07-03T06:00:38;4.38;;;1.95;;
70547;SDS011;58099;43.406;3.698;2022-07-03T06:03:03;5.90;;;2.13;;
70547;SDS011;58099;43.406;3.698;2022-07-03T06:05:29;4.13;;;1.73;;
70547;SDS011;58099;43.406;3.698;2022-07-03T06:07:55;4.90;;;2.00;;
70547;SDS011;58099;43.406;3.698;2022-07-03T06:10:21;4.00;;;1.80;;
70547;SDS011;58099;43.406;3.698;2022-07-03T06:12:47;5.80;;;2.30;;
70547;SDS011;58099;43.406;3.698;2022-07-03T06:15:14;5.83;;;2.40;;
70547;SDS011;58099;43.406;3.698;2022-07-03T06:17:40;4.82;;;1.98;;
70547;SDS011;58099;43.406;3.698;2022-07-03T06:20:05;4.95;;;2.10;;
70547;SDS011;58099;43.406;3.698;2022-07-03T06:22:32;4.93;;;1.87;;
70547;SDS011;58099;43.406;3.698;2022-07-03T06:24:58;4.60;;;1.92;;
70547;SDS011;58099;43.406;3.698;2022-07-03T06:27:24;4.85;;;2.13;;
70547;SDS011;58099;43.406;3.698;2022-07-03T06:29:50;4.70;;;2.25;;
70547;SDS011;58099;43.406;3.698;2022-07-03T06:32:17;5.17;;;2.07;;
70547;SDS011;58099;43.406;3.698;2022-07-03T06:34:43;5.55;;;1.90;;
70547;SDS011;58099;43.406;3.698;2022-07-03T06:37:10;4.95;;;2.28;;
70547;SDS011;58099;43.406;3.698;2022-07-03T06:39:37;4.53;;;2.00;;
70547;SDS011;58099;43.406;3.698;2022-07-03T06:42:02;5.17;;;2.03;;
70547;SDS011;58099;43.406;3.698;2022-07-03T06:44:29;6.75;;;2.08;;
70547;SDS011;58099;43.406;3.698;2022-07-03T06:46:54;4.88;;;2.17;;
70547;SDS011;58099;43.406;3.698;2022-07-03T06:49:21;4.97;;;2.33;;
70547;SDS011;58099;43.406;3.698;2022-07-03T06:51:47;4.85;;;2.50;;
70547;SDS011;58099;43.406;3.698;2022-07-03T06:54:13;5.43;;;1.92;;
70547;SDS011;58099;43.406;3.698;2022-07-03T06:56:39;5.18;;;2.88;;
70547;SDS011;58099;43.406;3.698;2022-07-03T06:59:05;5.53;;;2.40;;
70547;SDS011;58099;43.406;3.698;2022-07-03T07:01:31;4.32;;;2.17;;
70547;SDS011;58099;43.406;3.698;2022-07-03T07:03:56;5.27;;;2.43;;
70547;SDS011;58099;43.406;3.698;2022-07-03T07:06:22;4.97;;;2.13;;
70547;SDS011;58099;43.406;3.698;2022-07-03T07:08:48;5.33;;;2.40;;
70547;SDS011;58099;43.406;3.698;2022-07-03T07:11:14;5.32;;;2.17;;
70547;SDS011;58099;43.406;3.698;2022-07-03T07:13:40;8.18;;;2.20;;
70547;SDS011;58099;43.406;3.698;2022-07-03T07:16:06;5.53;;;1.90;;
70547;SDS011;58099;43.406;3.698;2022-07-03T07:18:32;4.30;;;1.83;;
70547;SDS011;58099;43.406;3.698;2022-07-03T07:20:59;4.45;;;1.95;;
70547;SDS011;58099;43.406;3.698;2022-07-03T07:23:25;6.25;;;1.90;;
70547;SDS011;58099;43.406;3.698;2022-07-03T07:25:51;6.20;;;1.97;;
70547;SDS011;58099;43.406;3.698;2022-07-03T07:28:17;4.03;;;1.50;;
70547;SDS011;58099;43.406;3.698;2022-07-03T07:30:43;3.78;;;1.80;;
70547;SDS011;58099;43.406;3.698;2022-07-03T07:33:12;4.07;;;1.40;;
70547;SDS011;58099;43.406;3.698;2022-07-03T07:35:38;4.50;;;1.67;;
70547;SDS011;58099;43.406;3.698;2022-07-03T07:38:03;4.55;;;1.83;;
70547;SDS011;58099;43.406;3.698;2022-07-03T07:40:30;4.28;;;1.92;;
70547;SDS011;58099;43.406;3.698;2022-07-03T07:42:56;6.70;;;3.38;;
70547;SDS011;58099;43.406;3.698;2022-07-03T07:45:22;5.95;;;2.60;;
70547;SDS011;58099;43.406;3.698;2022-07-03T07:47:47;5.97;;;2.40;;
70547;SDS011;58099;43.406;3.698;2022-07-03T07:50:13;5.13;;;2.90;;
70547;SDS011;58099;43.406;3.698;2022-07-03T07:52:39;4.80;;;2.22;;
70547;SDS011;58099;43.406;3.698;2022-07-03T07:55:05;7.57;;;2.87;;
70547;SDS011;58099;43.406;3.698;2022-07-03T07:57:35;4.60;;;2.80;;
70547;SDS011;58099;43.406;3.698;2022-07-03T08:00:09;7.18;;;2.50;;
70547;SDS011;58099;43.406;3.698;2022-07-03T08:02:36;5.30;;;2.13;;
70547;SDS011;58099;43.406;3.698;2022-07-03T08:05:21;6.28;;;2.72;;
70547;SDS011;58099;43.406;3.698;2022-07-03T08:10:38;5.10;;;2.55;;
70547;SDS011;58099;43.406;3.698;2022-07-03T08:13:06;4.80;;;2.50;;
70547;SDS011;58099;43.406;3.698;2022-07-03T08:15:33;5.18;;;2.70;;
70547;SDS011;58099;43.406;3.698;2022-07-03T08:17:59;5.03;;;2.55;;
70547;SDS011;58099;43.406;3.698;2022-07-03T08:20:25;5.93;;;2.77;;
70547;SDS011;58099;43.406;3.698;2022-07-03T08:22:51;4.97;;;2.42;;
70547;SDS011;58099;43.406;3.698;2022-07-03T08:25:17;6.15;;;2.60;;
70547;SDS011;58099;43.406;3.698;2022-07-03T08:27:43;5.45;;;2.50;;
70547;SDS011;58099;43.406;3.698;2022-07-03T08:30:09;5.22;;;2.15;;
70547;SDS011;58099;43.406;3.698;2022-07-03T08:32:35;5.03;;;2.50;;
70547;SDS011;58099;43.406;3.698;2022-07-03T08:35:01;4.60;;;2.22;;
70547;SDS011;58099;43.406;3.698;2022-07-03T08:37:27;5.00;;;2.30;;
70547;SDS011;58099;43.406;3.698;2022-07-03T08:39:53;5.68;;;2.70;;
70547;SDS011;58099;43.406;3.698;2022-07-03T08:42:19;5.10;;;3.35;;
70547;SDS011;58099;43.406;3.698;2022-07-03T08:44:46;7.90;;;2.30;;
70547;SDS011;58099;43.406;3.698;2022-07-03T08:47:15;5.22;;;2.67;;
70547;SDS011;58099;43.406;3.698;2022-07-03T08:49:42;4.20;;;1.65;;
70547;SDS011;58099;43.406;3.698;2022-07-03T08:52:09;3.92;;;1.67;;
70547;SDS011;58099;43.406;3.698;2022-07-03T08:54:37;5.30;;;2.88;;
70547;SDS011;58099;43.406;3.698;2022-07-03T08:57:03;5.10;;;2.77;;
70547;SDS011;58099;43.406;3.698;2022-07-03T08:59:32;5.70;;;2.40;;
70547;SDS011;58099;43.406;3.698;2022-07-03T09:02:05;5.63;;;3.05;;
70547;SDS011;58099;43.406;3.698;2022-07-03T09:04:32;4.47;;;2.63;;
70547;SDS011;58099;43.406;3.698;2022-07-03T09:06:59;4.95;;;2.58;;
70547;SDS011;58099;43.406;3.698;2022-07-03T09:09:25;4.43;;;2.67;;
70547;SDS011;58099;43.406;3.698;2022-07-03T09:11:52;7.80;;;2.92;;
70547;SDS011;58099;43.406;3.698;2022-07-03T09:14:18;5.82;;;3.08;;
70547;SDS011;58099;43.406;3.698;2022-07-03T09:16:44;6.53;;;2.58;;
70547;SDS011;58099;43.406;3.698;2022-07-03T09:19:10;5.83;;;2.80;;
70547;SDS011;58099;43.406;3.698;2022-07-03T09:21:39;6.13;;;2.55;;
70547;SDS011;58099;43.406;3.698;2022-07-03T09:24:08;6.80;;;2.90;;
70547;SDS011;58099;43.406;3.698;2022-07-03T09:26:35;5.47;;;2.65;;
70547;SDS011;58099;43.406;3.698;2022-07-03T09:29:14;7.27;;;2.80;;
70547;SDS011;58099;43.406;3.698;2022-07-03T09:31:40;6.28;;;2.55;;
70547;SDS011;58099;43.406;3.698;2022-07-03T09:34:06;5.25;;;2.30;;
70547;SDS011;58099;43.406;3.698;2022-07-03T09:44:30;6.35;;;2.20;;
70547;SDS011;58099;43.406;3.698;2022-07-03T09:47:11;4.32;;;1.98;;
70547;SDS011;58099;43.406;3.698;2022-07-03T09:49:46;4.63;;;2.80;;
70547;SDS011;58099;43.406;3.698;2022-07-03T09:52:27;5.25;;;2.75;;
70547;SDS011;58099;43.406;3.698;2022-07-03T09:57:34;5.05;;;1.95;;
70547;SDS011;58099;43.406;3.698;2022-07-03T10:00:22;4.65;;;2.25;;
70547;SDS011;58099;43.406;3.698;2022-07-03T10:05:22;5.13;;;2.20;;
70547;SDS011;58099;43.406;3.698;2022-07-03T10:07:56;4.70;;;2.33;;
70547;SDS011;58099;43.406;3.698;2022-07-03T10:10:32;5.25;;;2.30;;
70547;SDS011;58099;43.406;3.698;2022-07-03T10:12:59;5.97;;;1.77;;
70547;SDS011;58099;43.406;3.698;2022-07-03T10:15:27;4.50;;;2.15;;
70547;SDS011;58099;43.406;3.698;2022-07-03T10:17:55;5.18;;;1.80;;
70547;SDS011;58099;43.406;3.698;2022-07-03T10:20:56;5.35;;;2.10;;
70547;SDS011;58099;43.406;3.698;2022-07-03T10:23:15;6.15;;;2.05;;
70547;SDS011;58099;43.406;3.698;2022-07-03T10:25:45;6.53;;;2.15;;
70547;SDS011;58099;43.406;3.698;2022-07-03T10:28:13;4.40;;;2.03;;
70547;SDS011;58099;43.406;3.698;2022-07-03T10:30:40;5.80;;;2.13;;
70547;SDS011;58099;43.406;3.698;2022-07-03T10:33:09;5.05;;;2.00;;
70547;SDS011;58099;43.406;3.698;2022-07-03T10:35:36;5.28;;;1.98;;
70547;SDS011;58099;43.406;3.698;2022-07-03T10:38:48;6.65;;;1.70;;
70547;SDS011;58099;43.406;3.698;2022-07-03T10:41:16;4.68;;;1.60;;
70547;SDS011;58099;43.406;3.698;2022-07-03T10:44:09;4.85;;;1.80;;
70547;SDS011;58099;43.406;3.698;2022-07-03T10:46:56;4.72;;;1.88;;
70547;SDS011;58099;43.406;3.698;2022-07-03T10:49:22;4.18;;;1.90;;
70547;SDS011;58099;43.406;3.698;2022-07-03T10:51:59;5.13;;;1.83;;
70547;SDS011;58099;43.406;3.698;2022-07-03T11:07:29;4.88;;;2.08;;
70547;SDS011;58099;43.406;3.698;2022-07-03T11:15:25;5.88;;;2.30;;
70547;SDS011;58099;43.406;3.698;2022-07-03T11:25:55;6.10;;;3.75;;
70547;SDS011;58099;43.406;3.698;2022-07-03T11:38:46;5.00;;;2.85;;
70547;SDS011;58099;43.406;3.698;2022-07-03T11:41:18;5.20;;;2.58;;
70547;SDS011;58099;43.406;3.698;2022-07-03T11:46:26;6.03;;;2.78;;
70547;SDS011;58099;43.406;3.698;2022-07-03T11:49:06;5.63;;;2.30;;
70547;SDS011;58099;43.406;3.698;2022-07-03T11:51:33;4.57;;;1.90;;
70547;SDS011;58099;43.406;3.698;2022-07-03T11:53:59;4.13;;;1.98;;
70547;SDS011;58099;43.406;3.698;2022-07-03T11:56:26;6.35;;;2.70;;
70547;SDS011;58099;43.406;3.698;2022-07-03T11:58:57;4.78;;;2.50;;
70547;SDS011;58099;43.406;3.698;2022-07-03T12:03:50;4.90;;;1.85;;
70547;SDS011;58099;43.406;3.698;2022-07-03T12:06:42;5.38;;;2.20;;
70547;SDS011;58099;43.406;3.698;2022-07-03T12:09:18;4.70;;;2.00;;
70547;SDS011;58099;43.406;3.698;2022-07-03T12:14:39;7.50;;;2.72;;
70547;SDS011;58099;43.406;3.698;2022-07-03T12:17:30;7.55;;;2.80;;
70547;SDS011;58099;43.406;3.698;2022-07-03T12:19:56;5.38;;;2.08;;
70547;SDS011;58099;43.406;3.698;2022-07-03T12:27:27;5.95;;;2.78;;
70547;SDS011;58099;43.406;3.698;2022-07-03T12:29:54;5.07;;;2.30;;
70547;SDS011;58099;43.406;3.698;2022-07-03T12:32:20;3.60;;;1.85;;
70547;SDS011;58099;43.406;3.698;2022-07-03T12:34:46;4.90;;;2.20;;
70547;SDS011;58099;43.406;3.698;2022-07-03T12:37:12;4.95;;;2.42;;
70547;SDS011;58099;43.406;3.698;2022-07-03T12:39:47;4.50;;;2.10;;
70547;SDS011;58099;43.406;3.698;2022-07-03T12:42:14;5.70;;;2.60;;
70547;SDS011;58099;43.406;3.698;2022-07-03T12:45:02;6.22;;;2.97;;
70547;SDS011;58099;43.406;3.698;2022-07-03T12:47:30;5.45;;;2.30;;
70547;SDS011;58099;43.406;3.698;2022-07-03T12:52:25;4.68;;;2.35;;
70547;SDS011;58099;43.406;3.698;2022-07-03T12:54:51;5.57;;;2.75;;
70547;SDS011;58099;43.406;3.698;2022-07-03T12:57:17;4.93;;;2.33;;
70547;SDS011;58099;43.406;3.698;2022-07-03T13:02:45;5.68;;;2.38;;
70547;SDS011;58099;43.406;3.698;2022-07-03T13:05:13;7.23;;;2.90;;
70547;SDS011;58099;43.406;3.698;2022-07-03T13:07:40;6.22;;;2.30;;
70547;SDS011;58099;43.406;3.698;2022-07-03T13:10:07;3.92;;;1.50;;
70547;SDS011;58099;43.406;3.698;2022-07-03T13:12:33;7.95;;;3.03;;
70547;SDS011;58099;43.406;3.698;2022-07-03T13:14:59;6.10;;;3.33;;
70547;SDS011;58099;43.406;3.698;2022-07-03T13:20:18;5.20;;;1.90;;
70547;SDS011;58099;43.406;3.698;2022-07-03T13:22:47;6.10;;;2.15;;
70547;SDS011;58099;43.406;3.698;2022-07-03T13:25:13;5.90;;;1.77;;
70547;SDS011;58099;43.406;3.698;2022-07-03T13:27:39;5.07;;;1.38;;
70547;SDS011;58099;43.406;3.698;2022-07-03T13:30:05;4.93;;;1.70;;
70547;SDS011;58099;43.406;3.698;2022-07-03T13:32:31;4.78;;;1.80;;
70547;SDS011;58099;43.406;3.698;2022-07-03T13:34:57;4.32;;;1.42;;
70547;SDS011;58099;43.406;3.698;2022-07-03T13:37:25;4.28;;;1.45;;
70547;SDS011;58099;43.406;3.698;2022-07-03T13:39:52;3.97;;;1.50;;
70547;SDS011;58099;43.406;3.698;2022-07-03T13:42:17;4.95;;;1.33;;
70547;SDS011;58099;43.406;3.698;2022-07-03T13:44:43;4.22;;;1.42;;
70547;SDS011;58099;43.406;3.698;2022-07-03T13:47:09;2.77;;;0.83;;
70547;SDS011;58099;43.406;3.698;2022-07-03T13:49:35;3.35;;;1.40;;
70547;SDS011;58099;43.406;3.698;2022-07-03T13:52:01;3.55;;;1.20;;
70547;SDS011;58099;43.406;3.698;2022-07-03T13:54:26;3.75;;;1.13;;
70547;SDS011;58099;43.406;3.698;2022-07-03T13:56:52;3.17;;;0.97;;
70547;SDS011;58099;43.406;3.698;2022-07-03T13:59:18;3.45;;;1.05;;
70547;SDS011;58099;43.406;3.698;2022-07-03T14:01:44;3.03;;;1.20;;
70547;SDS011;58099;43.406;3.698;2022-07-03T14:04:10;5.87;;;1.47;;
70547;SDS011;58099;43.406;3.698;2022-07-03T14:06:35;3.88;;;0.93;;
70547;SDS011;58099;43.406;3.698;2022-07-03T14:09:02;3.40;;;1.17;;
70547;SDS011;58099;43.406;3.698;2022-07-03T14:11:28;3.53;;;1.08;;
70547;SDS011;58099;43.406;3.698;2022-07-03T14:13:53;4.82;;;1.10;;
70547;SDS011;58099;43.406;3.698;2022-07-03T14:16:19;3.30;;;0.95;;
70547;SDS011;58099;43.406;3.698;2022-07-03T14:18:45;3.72;;;0.98;;
70547;SDS011;58099;43.406;3.698;2022-07-03T14:21:11;3.95;;;1.13;;
70547;SDS011;58099;43.406;3.698;2022-07-03T14:23:37;3.40;;;1.20;;
70547;SDS011;58099;43.406;3.698;2022-07-03T14:26:03;4.35;;;1.08;;
70547;SDS011;58099;43.406;3.698;2022-07-03T14:28:29;4.10;;;1.30;;
70547;SDS011;58099;43.406;3.698;2022-07-03T14:31:13;4.13;;;1.23;;
70547;SDS011;58099;43.406;3.698;2022-07-03T14:33:58;3.63;;;1.50;;
70547;SDS011;58099;43.406;3.698;2022-07-03T14:36:23;3.70;;;1.30;;
70547;SDS011;58099;43.406;3.698;2022-07-03T14:38:49;4.40;;;1.40;;
70547;SDS011;58099;43.406;3.698;2022-07-03T14:41:15;3.23;;;0.90;;
70547;SDS011;58099;43.406;3.698;2022-07-03T14:43:42;3.38;;;1.30;;
70547;SDS011;58099;43.406;3.698;2022-07-03T14:46:11;4.10;;;1.30;;
70547;SDS011;58099;43.406;3.698;2022-07-03T14:48:40;4.47;;;1.20;;
70547;SDS011;58099;43.406;3.698;2022-07-03T14:51:06;3.77;;;0.87;;
70547;SDS011;58099;43.406;3.698;2022-07-03T14:53:31;4.47;;;1.30;;
70547;SDS011;58099;43.406;3.698;2022-07-03T14:56:00;3.97;;;1.20;;
70547;SDS011;58099;43.406;3.698;2022-07-03T14:58:27;3.35;;;1.20;;
70547;SDS011;58099;43.406;3.698;2022-07-03T15:00:55;4.05;;;1.33;;
70547;SDS011;58099;43.406;3.698;2022-07-03T15:03:28;3.83;;;1.42;;
70547;SDS011;58099;43.406;3.698;2022-07-03T15:05:59;3.78;;;1.30;;
70547;SDS011;58099;43.406;3.698;2022-07-03T15:10:53;4.57;;;1.50;;
70547;SDS011;58099;43.406;3.698;2022-07-03T15:13:19;3.72;;;1.45;;
70547;SDS011;58099;43.406;3.698;2022-07-03T15:15:46;3.65;;;1.45;;
70547;SDS011;58099;43.406;3.698;2022-07-03T15:18:15;4.00;;;1.30;;
70547;SDS011;58099;43.406;3.698;2022-07-03T15:20:43;3.92;;;1.55;;
70547;SDS011;58099;43.406;3.698;2022-07-03T15:23:09;3.80;;;1.80;;
70547;SDS011;58099;43.406;3.698;2022-07-03T15:25:36;3.65;;;1.48;;
70547;SDS011;58099;43.406;3.698;2022-07-03T15:28:03;3.75;;;1.80;;
70547;SDS011;58099;43.406;3.698;2022-07-03T15:30:29;3.90;;;1.50;;
70547;SDS011;58099;43.406;3.698;2022-07-03T15:32:56;3.90;;;1.17;;
70547;SDS011;58099;43.406;3.698;2022-07-03T15:35:23;3.50;;;1.10;;
70547;SDS011;58099;43.406;3.698;2022-07-03T15:40:35;4.60;;;1.63;;
70547;SDS011;58099;43.406;3.698;2022-07-03T15:51:44;5.13;;;1.60;;
70547;SDS011;58099;43.406;3.698;2022-07-03T15:57:01;4.40;;;1.90;;
70547;SDS011;58099;43.406;3.698;2022-07-03T15:59:30;4.97;;;1.67;;
70547;SDS011;58099;43.406;3.698;2022-07-03T16:02:00;4.80;;;1.67;;
70547;SDS011;58099;43.406;3.698;2022-07-03T16:04:46;3.90;;;1.83;;
70547;SDS011;58099;43.406;3.698;2022-07-03T16:07:23;5.00;;;1.83;;
70547;SDS011;58099;43.406;3.698;2022-07-03T16:09:51;4.78;;;2.20;;
70547;SDS011;58099;43.406;3.698;2022-07-03T16:12:17;5.50;;;2.30;;
70547;SDS011;58099;43.406;3.698;2022-07-03T16:14:49;4.10;;;2.15;;
70547;SDS011;58099;43.406;3.698;2022-07-03T16:17:19;5.32;;;2.30;;
70547;SDS011;58099;43.406;3.698;2022-07-03T16:19:46;6.35;;;2.10;;
70547;SDS011;58099;43.406;3.698;2022-07-03T16:22:13;5.93;;;2.40;;
70547;SDS011;58099;43.406;3.698;2022-07-03T16:24:43;4.70;;;2.17;;
70547;SDS011;58099;43.406;3.698;2022-07-03T16:27:14;4.57;;;2.00;;
70547;SDS011;58099;43.406;3.698;2022-07-03T16:29:43;4.57;;;2.50;;
70547;SDS011;58099;43.406;3.698;2022-07-03T16:32:11;6.18;;;2.90;;
70547;SDS011;58099;43.406;3.698;2022-07-03T16:37:25;7.00;;;2.92;;
70547;SDS011;58099;43.406;3.698;2022-07-03T16:39:59;7.50;;;3.30;;
70547;SDS011;58099;43.406;3.698;2022-07-03T16:42:30;8.82;;;3.13;;
70547;SDS011;58099;43.406;3.698;2022-07-03T16:44:57;6.65;;;3.20;;
70547;SDS011;58099;43.406;3.698;2022-07-03T16:47:31;6.72;;;3.28;;
70547;SDS011;58099;43.406;3.698;2022-07-03T16:50:10;6.15;;;3.20;;
70547;SDS011;58099;43.406;3.698;2022-07-03T16:52:44;6.77;;;3.30;;
70547;SDS011;58099;43.406;3.698;2022-07-03T16:55:12;6.13;;;3.47;;
70547;SDS011;58099;43.406;3.698;2022-07-03T17:00:13;4.88;;;3.05;;
70547;SDS011;58099;43.406;3.698;2022-07-03T17:02:41;5.18;;;3.10;;
70547;SDS011;58099;43.406;3.698;2022-07-03T17:05:09;5.33;;;3.07;;
70547;SDS011;58099;43.406;3.698;2022-07-03T17:07:36;7.00;;;3.28;;
70547;SDS011;58099;43.406;3.698;2022-07-03T17:10:06;6.03;;;3.33;;
70547;SDS011;58099;43.406;3.698;2022-07-03T17:12:37;4.97;;;2.88;;